sensor_id;sensor_type;location;lat;lon;timestamp;P1;durP1;ratioP1;P2;durP2;ratioP2
62543;SDS011;48597;49.030;1.822;2023-04-15T00:01:21;1.23;;;1.10;;
62543;SDS011;48597;49.030;1.822;2023-04-15T00:03:49;1.45;;;1.20;;
62543;SDS011;48597;49.030;1.822;2023-04-15T00:06:16;1.27;;;1.17;;
62543;SDS011;48597;49.030;1.822;2023-04-15T00:08:41;1.30;;;1.20;;
62543;SDS011;48597;49.030;1.822;2023-04-15T00:11:07;1.40;;;1.30;;
62543;SDS011;48597;49.030;1.822;2023-04-15T00:13:32;1.83;;;1.15;;
62543;SDS011;48597;49.030;1.822;2023-04-15T00:15:58;1.20;;;1.10;;
62543;SDS011;48597;49.030;1.822;2023-04-15T00:18:24;1.38;;;1.10;;
62543;SDS011;48597;49.030;1.822;2023-04-15T00:20:50;1.20;;;1.10;;
62543;SDS011;48597;49.030;1.822;2023-04-15T00:23:16;1.50;;;1.20;;
62543;SDS011;48597;49.030;1.822;2023-04-15T00:25:41;1.27;;;1.10;;
62543;SDS011;48597;49.030;1.822;2023-04-15T00:28:07;1.10;;;1.00;;
62543;SDS011;48597;49.030;1.822;2023-04-15T00:30:32;1.58;;;1.30;;
62543;SDS011;48597;49.030;1.822;2023-04-15T00:32:58;1.20;;;1.10;;
62543;SDS011;48597;49.030;1.822;2023-04-15T00:35:23;1.30;;;1.20;;
62543;SDS011;48597;49.030;1.822;2023-04-15T00:37:48;1.40;;;1.20;;
62543;SDS011;48597;49.030;1.822;2023-04-15T00:40:14;1.40;;;1.30;;
62543;SDS011;48597;49.030;1.822;2023-04-15T00:42:42;1.10;;;1.00;;
62543;SDS011;48597;49.030;1.822;2023-04-15T00:45:08;1.42;;;1.20;;
62543;SDS011;48597;49.030;1.822;2023-04-15T00:47:35;1.42;;;1.10;;
62543;SDS011;48597;49.030;1.822;2023-04-15T00:50:01;1.52;;;1.10;;
62543;SDS011;48597;49.030;1.822;2023-04-15T00:52:27;1.30;;;1.20;;
62543;SDS011;48597;49.030;1.822;2023-04-15T00:54:52;1.25;;;1.10;;
62543;SDS011;48597;49.030;1.822;2023-04-15T00:57:18;1.48;;;1.27;;
62543;SDS011;48597;49.030;1.822;2023-04-15T00:59:45;1.30;;;1.10;;
62543;SDS011;48597;49.030;1.822;2023-04-15T01:02:11;1.95;;;1.10;;
62543;SDS011;48597;49.030;1.822;2023-04-15T01:04:36;1.10;;;1.00;;
62543;SDS011;48597;49.030;1.822;2023-04-15T01:07:02;1.40;;;1.10;;
62543;SDS011;48597;49.030;1.822;2023-04-15T01:09:27;1.42;;;1.00;;
62543;SDS011;48597;49.030;1.822;2023-04-15T01:11:53;1.05;;;0.95;;
62543;SDS011;48597;49.030;1.822;2023-04-15T01:14:18;1.10;;;1.00;;
62543;SDS011;48597;49.030;1.822;2023-04-15T01:16:45;1.30;;;1.20;;
62543;SDS011;48597;49.030;1.822;2023-04-15T01:19:10;1.15;;;1.05;;
62543;SDS011;48597;49.030;1.822;2023-04-15T01:21:40;1.35;;;1.25;;
62543;SDS011;48597;49.030;1.822;2023-04-15T01:24:07;1.02;;;0.90;;
62543;SDS011;48597;49.030;1.822;2023-04-15T01:26:37;1.25;;;1.15;;
62543;SDS011;48597;49.030;1.822;2023-04-15T01:29:04;1.10;;;1.00;;
62543;SDS011;48597;49.030;1.822;2023-04-15T01:31:30;1.10;;;1.00;;
62543;SDS011;48597;49.030;1.822;2023-04-15T01:33:56;1.10;;;1.00;;
62543;SDS011;48597;49.030;1.822;2023-04-15T01:36:22;1.50;;;1.40;;
62543;SDS011;48597;49.030;1.822;2023-04-15T01:38:48;1.13;;;0.93;;
62543;SDS011;48597;49.030;1.822;2023-04-15T01:41:14;1.40;;;1.10;;
62543;SDS011;48597;49.030;1.822;2023-04-15T01:43:39;1.70;;;1.25;;
62543;SDS011;48597;49.030;1.822;2023-04-15T01:46:05;1.30;;;1.00;;
62543;SDS011;48597;49.030;1.822;2023-04-15T01:48:31;1.35;;;1.10;;
62543;SDS011;48597;49.030;1.822;2023-04-15T01:50:56;1.20;;;1.10;;
62543;SDS011;48597;49.030;1.822;2023-04-15T01:53:23;1.15;;;1.00;;
62543;SDS011;48597;49.030;1.822;2023-04-15T01:55:49;1.10;;;1.00;;
62543;SDS011;48597;49.030;1.822;2023-04-15T01:58:16;1.35;;;1.10;;
62543;SDS011;48597;49.030;1.822;2023-04-15T02:00:41;1.40;;;1.20;;
62543;SDS011;48597;49.030;1.822;2023-04-15T02:03:07;1.10;;;1.00;;
62543;SDS011;48597;49.030;1.822;2023-04-15T02:05:32;1.33;;;1.20;;
62543;SDS011;48597;49.030;1.822;2023-04-15T02:07:57;1.02;;;1.00;;
62543;SDS011;48597;49.030;1.822;2023-04-15T02:10:23;1.10;;;1.00;;
62543;SDS011;48597;49.030;1.822;2023-04-15T02:12:48;1.60;;;1.10;;
62543;SDS011;48597;49.030;1.822;2023-04-15T02:15:14;1.38;;;1.27;;
62543;SDS011;48597;49.030;1.822;2023-04-15T02:17:39;1.63;;;1.10;;
62543;SDS011;48597;49.030;1.822;2023-04-15T02:20:05;1.27;;;0.98;;
62543;SDS011;48597;49.030;1.822;2023-04-15T02:22:31;3.25;;;1.30;;
62543;SDS011;48597;49.030;1.822;2023-04-15T02:24:56;1.10;;;0.82;;
62543;SDS011;48597;49.030;1.822;2023-04-15T02:27:22;1.27;;;0.90;;
62543;SDS011;48597;49.030;1.822;2023-04-15T02:29:47;1.35;;;1.00;;
62543;SDS011;48597;49.030;1.822;2023-04-15T02:32:15;1.00;;;1.00;;
62543;SDS011;48597;49.030;1.822;2023-04-15T02:34:40;1.20;;;1.10;;
62543;SDS011;48597;49.030;1.822;2023-04-15T02:37:10;1.00;;;0.90;;
62543;SDS011;48597;49.030;1.822;2023-04-15T02:39:36;1.02;;;0.98;;
62543;SDS011;48597;49.030;1.822;2023-04-15T02:42:02;1.00;;;0.90;;
62543;SDS011;48597;49.030;1.822;2023-04-15T02:44:28;0.80;;;0.80;;
62543;SDS011;48597;49.030;1.822;2023-04-15T02:46:55;0.90;;;0.90;;
62543;SDS011;48597;49.030;1.822;2023-04-15T02:49:20;1.15;;;0.90;;
62543;SDS011;48597;49.030;1.822;2023-04-15T02:51:46;1.02;;;0.93;;
62543;SDS011;48597;49.030;1.822;2023-04-15T02:54:14;1.73;;;1.10;;
62543;SDS011;48597;49.030;1.822;2023-04-15T02:56:40;0.93;;;0.90;;
62543;SDS011;48597;49.030;1.822;2023-04-15T02:59:06;1.00;;;0.80;;
62543;SDS011;48597;49.030;1.822;2023-04-15T03:01:31;1.10;;;0.90;;
62543;SDS011;48597;49.030;1.822;2023-04-15T03:03:56;0.80;;;0.80;;
62543;SDS011;48597;49.030;1.822;2023-04-15T03:06:22;0.90;;;0.90;;
62543;SDS011;48597;49.030;1.822;2023-04-15T03:08:48;1.00;;;1.00;;
62543;SDS011;48597;49.030;1.822;2023-04-15T03:11:14;1.30;;;0.90;;
62543;SDS011;48597;49.030;1.822;2023-04-15T03:13:40;0.80;;;0.80;;
62543;SDS011;48597;49.030;1.822;2023-04-15T03:16:07;0.88;;;0.80;;
62543;SDS011;48597;49.030;1.822;2023-04-15T03:18:32;0.80;;;0.80;;
62543;SDS011;48597;49.030;1.822;2023-04-15T03:20:58;1.23;;;0.80;;
62543;SDS011;48597;49.030;1.822;2023-04-15T03:23:23;1.05;;;0.90;;
62543;SDS011;48597;49.030;1.822;2023-04-15T03:25:49;0.90;;;0.90;;
62543;SDS011;48597;49.030;1.822;2023-04-15T03:28:14;0.80;;;0.80;;
62543;SDS011;48597;49.030;1.822;2023-04-15T03:30:40;1.08;;;0.98;;
62543;SDS011;48597;49.030;1.822;2023-04-15T03:33:05;0.90;;;0.90;;
62543;SDS011;48597;49.030;1.822;2023-04-15T03:35:31;0.70;;;0.70;;
62543;SDS011;48597;49.030;1.822;2023-04-15T03:37:56;0.77;;;0.77;;
62543;SDS011;48597;49.030;1.822;2023-04-15T03:40:22;0.70;;;0.70;;
62543;SDS011;48597;49.030;1.822;2023-04-15T03:42:47;0.82;;;0.73;;
62543;SDS011;48597;49.030;1.822;2023-04-15T03:45:12;0.88;;;0.70;;
62543;SDS011;48597;49.030;1.822;2023-04-15T03:47:38;0.70;;;0.70;;
62543;SDS011;48597;49.030;1.822;2023-04-15T03:50:03;0.80;;;0.80;;
62543;SDS011;48597;49.030;1.822;2023-04-15T03:52:29;0.75;;;0.75;;
62543;SDS011;48597;49.030;1.822;2023-04-15T03:54:55;0.60;;;0.60;;
62543;SDS011;48597;49.030;1.822;2023-04-15T03:57:20;1.08;;;0.70;;
62543;SDS011;48597;49.030;1.822;2023-04-15T03:59:46;1.15;;;0.90;;
62543;SDS011;48597;49.030;1.822;2023-04-15T04:02:11;1.00;;;0.85;;
62543;SDS011;48597;49.030;1.822;2023-04-15T04:04:36;0.82;;;0.82;;
62543;SDS011;48597;49.030;1.822;2023-04-15T04:07:02;0.70;;;0.70;;
62543;SDS011;48597;49.030;1.822;2023-04-15T04:09:27;0.70;;;0.70;;
62543;SDS011;48597;49.030;1.822;2023-04-15T04:11:52;0.70;;;0.70;;
62543;SDS011;48597;49.030;1.822;2023-04-15T04:14:18;0.80;;;0.80;;
62543;SDS011;48597;49.030;1.822;2023-04-15T04:16:43;0.90;;;0.70;;
62543;SDS011;48597;49.030;1.822;2023-04-15T04:19:09;1.00;;;0.90;;
62543;SDS011;48597;49.030;1.822;2023-04-15T04:21:34;0.70;;;0.70;;
62543;SDS011;48597;49.030;1.822;2023-04-15T04:24:00;0.70;;;0.70;;
62543;SDS011;48597;49.030;1.822;2023-04-15T04:26:26;0.60;;;0.60;;
62543;SDS011;48597;49.030;1.822;2023-04-15T04:28:51;0.70;;;0.65;;
62543;SDS011;48597;49.030;1.822;2023-04-15T04:31:17;0.85;;;0.70;;
62543;SDS011;48597;49.030;1.822;2023-04-15T04:33:42;0.70;;;0.70;;
62543;SDS011;48597;49.030;1.822;2023-04-15T04:36:08;1.10;;;0.60;;
62543;SDS011;48597;49.030;1.822;2023-04-15T04:38:33;0.50;;;0.50;;
62543;SDS011;48597;49.030;1.822;2023-04-15T04:40:58;0.55;;;0.55;;
62543;SDS011;48597;49.030;1.822;2023-04-15T04:43:24;0.60;;;0.60;;
62543;SDS011;48597;49.030;1.822;2023-04-15T04:45:50;0.60;;;0.60;;
62543;SDS011;48597;49.030;1.822;2023-04-15T04:48:15;0.65;;;0.65;;
62543;SDS011;48597;49.030;1.822;2023-04-15T04:50:41;0.55;;;0.50;;
62543;SDS011;48597;49.030;1.822;2023-04-15T04:53:06;0.65;;;0.65;;
62543;SDS011;48597;49.030;1.822;2023-04-15T04:55:32;0.60;;;0.60;;
62543;SDS011;48597;49.030;1.822;2023-04-15T04:58:00;0.63;;;0.60;;
62543;SDS011;48597;49.030;1.822;2023-04-15T05:00:26;0.60;;;0.60;;
62543;SDS011;48597;49.030;1.822;2023-04-15T05:02:51;0.50;;;0.50;;
62543;SDS011;48597;49.030;1.822;2023-04-15T05:05:17;0.60;;;0.60;;
62543;SDS011;48597;49.030;1.822;2023-04-15T05:07:42;0.55;;;0.55;;
62543;SDS011;48597;49.030;1.822;2023-04-15T05:10:08;0.40;;;0.40;;
62543;SDS011;48597;49.030;1.822;2023-04-15T05:12:34;0.60;;;0.52;;
62543;SDS011;48597;49.030;1.822;2023-04-15T05:15:00;0.50;;;0.50;;
62543;SDS011;48597;49.030;1.822;2023-04-15T05:17:25;0.50;;;0.50;;
62543;SDS011;48597;49.030;1.822;2023-04-15T05:19:51;0.50;;;0.50;;
62543;SDS011;48597;49.030;1.822;2023-04-15T05:22:17;0.50;;;0.50;;
62543;SDS011;48597;49.030;1.822;2023-04-15T05:24:43;0.50;;;0.50;;
62543;SDS011;48597;49.030;1.822;2023-04-15T05:27:08;0.85;;;0.63;;
62543;SDS011;48597;49.030;1.822;2023-04-15T05:29:35;0.50;;;0.50;;
62543;SDS011;48597;49.030;1.822;2023-04-15T05:32:00;0.70;;;0.43;;
62543;SDS011;48597;49.030;1.822;2023-04-15T05:34:26;0.40;;;0.40;;
62543;SDS011;48597;49.030;1.822;2023-04-15T05:36:51;0.63;;;0.50;;
62543;SDS011;48597;49.030;1.822;2023-04-15T05:39:16;0.80;;;0.50;;
62543;SDS011;48597;49.030;1.822;2023-04-15T05:41:42;0.40;;;0.40;;
62543;SDS011;48597;49.030;1.822;2023-04-15T05:44:07;0.50;;;0.50;;
62543;SDS011;48597;49.030;1.822;2023-04-15T05:46:33;0.68;;;0.57;;
62543;SDS011;48597;49.030;1.822;2023-04-15T05:48:58;0.93;;;0.52;;
62543;SDS011;48597;49.030;1.822;2023-04-15T05:51:23;0.40;;;0.40;;
62543;SDS011;48597;49.030;1.822;2023-04-15T05:53:49;0.75;;;0.60;;
62543;SDS011;48597;49.030;1.822;2023-04-15T05:56:14;0.43;;;0.43;;
62543;SDS011;48597;49.030;1.822;2023-04-15T05:58:39;0.50;;;0.50;;
62543;SDS011;48597;49.030;1.822;2023-04-15T06:01:05;0.50;;;0.50;;
62543;SDS011;48597;49.030;1.822;2023-04-15T06:03:31;0.38;;;0.38;;
62543;SDS011;48597;49.030;1.822;2023-04-15T06:05:56;0.40;;;0.40;;
62543;SDS011;48597;49.030;1.822;2023-04-15T06:08:21;0.57;;;0.50;;
62543;SDS011;48597;49.030;1.822;2023-04-15T06:10:47;0.65;;;0.65;;
62543;SDS011;48597;49.030;1.822;2023-04-15T06:13:12;0.85;;;0.50;;
62543;SDS011;48597;49.030;1.822;2023-04-15T06:15:38;0.40;;;0.40;;
62543;SDS011;48597;49.030;1.822;2023-04-15T06:18:03;0.40;;;0.40;;
62543;SDS011;48597;49.030;1.822;2023-04-15T06:20:29;0.50;;;0.50;;
62543;SDS011;48597;49.030;1.822;2023-04-15T06:22:54;0.40;;;0.40;;
62543;SDS011;48597;49.030;1.822;2023-04-15T06:25:20;0.30;;;0.30;;
62543;SDS011;48597;49.030;1.822;2023-04-15T06:27:45;0.70;;;0.50;;
62543;SDS011;48597;49.030;1.822;2023-04-15T06:30:11;0.43;;;0.43;;
62543;SDS011;48597;49.030;1.822;2023-04-15T06:32:36;0.50;;;0.50;;
62543;SDS011;48597;49.030;1.822;2023-04-15T06:35:02;0.40;;;0.40;;
62543;SDS011;48597;49.030;1.822;2023-04-15T06:37:28;0.40;;;0.40;;
62543;SDS011;48597;49.030;1.822;2023-04-15T06:39:53;0.85;;;0.50;;
62543;SDS011;48597;49.030;1.822;2023-04-15T06:42:18;0.40;;;0.40;;
62543;SDS011;48597;49.030;1.822;2023-04-15T06:44:44;0.60;;;0.43;;
62543;SDS011;48597;49.030;1.822;2023-04-15T06:47:09;0.77;;;0.40;;
62543;SDS011;48597;49.030;1.822;2023-04-15T06:49:37;0.60;;;0.40;;
62543;SDS011;48597;49.030;1.822;2023-04-15T06:52:02;0.40;;;0.40;;
62543;SDS011;48597;49.030;1.822;2023-04-15T06:54:29;0.47;;;0.40;;
62543;SDS011;48597;49.030;1.822;2023-04-15T06:56:54;0.40;;;0.40;;
62543;SDS011;48597;49.030;1.822;2023-04-15T06:59:19;0.40;;;0.40;;
62543;SDS011;48597;49.030;1.822;2023-04-15T07:01:45;0.35;;;0.35;;
62543;SDS011;48597;49.030;1.822;2023-04-15T07:04:10;0.40;;;0.40;;
62543;SDS011;48597;49.030;1.822;2023-04-15T07:06:36;0.75;;;0.50;;
62543;SDS011;48597;49.030;1.822;2023-04-15T07:09:02;0.50;;;0.50;;
62543;SDS011;48597;49.030;1.822;2023-04-15T07:11:28;0.40;;;0.40;;
62543;SDS011;48597;49.030;1.822;2023-04-15T07:13:54;0.45;;;0.45;;
62543;SDS011;48597;49.030;1.822;2023-04-15T07:16:20;0.40;;;0.40;;
62543;SDS011;48597;49.030;1.822;2023-04-15T07:18:45;0.50;;;0.50;;
62543;SDS011;48597;49.030;1.822;2023-04-15T07:21:11;0.40;;;0.40;;
62543;SDS011;48597;49.030;1.822;2023-04-15T07:23:36;0.30;;;0.30;;
62543;SDS011;48597;49.030;1.822;2023-04-15T07:26:02;0.40;;;0.40;;
62543;SDS011;48597;49.030;1.822;2023-04-15T07:28:28;0.35;;;0.35;;
62543;SDS011;48597;49.030;1.822;2023-04-15T07:30:53;0.40;;;0.40;;
62543;SDS011;48597;49.030;1.822;2023-04-15T07:33:21;0.55;;;0.50;;
62543;SDS011;48597;49.030;1.822;2023-04-15T07:35:46;0.57;;;0.45;;
62543;SDS011;48597;49.030;1.822;2023-04-15T07:38:11;0.60;;;0.60;;
62543;SDS011;48597;49.030;1.822;2023-04-15T07:40:37;0.45;;;0.40;;
62543;SDS011;48597;49.030;1.822;2023-04-15T07:43:03;0.50;;;0.50;;
62543;SDS011;48597;49.030;1.822;2023-04-15T07:45:29;0.68;;;0.50;;
62543;SDS011;48597;49.030;1.822;2023-04-15T07:47:56;0.55;;;0.52;;
62543;SDS011;48597;49.030;1.822;2023-04-15T07:50:21;0.50;;;0.50;;
62543;SDS011;48597;49.030;1.822;2023-04-15T07:52:47;0.50;;;0.50;;
62543;SDS011;48597;49.030;1.822;2023-04-15T07:55:13;0.47;;;0.47;;
62543;SDS011;48597;49.030;1.822;2023-04-15T07:57:40;0.43;;;0.43;;
62543;SDS011;48597;49.030;1.822;2023-04-15T08:00:06;0.60;;;0.55;;
62543;SDS011;48597;49.030;1.822;2023-04-15T08:02:32;0.43;;;0.43;;
62543;SDS011;48597;49.030;1.822;2023-04-15T08:04:57;0.45;;;0.45;;
62543;SDS011;48597;49.030;1.822;2023-04-15T08:07:23;0.68;;;0.40;;
62543;SDS011;48597;49.030;1.822;2023-04-15T08:09:49;0.52;;;0.40;;
62543;SDS011;48597;49.030;1.822;2023-04-15T08:12:15;0.60;;;0.40;;
62543;SDS011;48597;49.030;1.822;2023-04-15T08:14:40;0.43;;;0.40;;
62543;SDS011;48597;49.030;1.822;2023-04-15T08:17:06;0.60;;;0.40;;
62543;SDS011;48597;49.030;1.822;2023-04-15T08:19:31;0.50;;;0.50;;
62543;SDS011;48597;49.030;1.822;2023-04-15T08:21:56;0.80;;;0.70;;
62543;SDS011;48597;49.030;1.822;2023-04-15T08:24:23;0.95;;;0.40;;
62543;SDS011;48597;49.030;1.822;2023-04-15T08:26:50;0.98;;;0.50;;
62543;SDS011;48597;49.030;1.822;2023-04-15T08:29:16;0.40;;;0.40;;
62543;SDS011;48597;49.030;1.822;2023-04-15T08:31:41;1.15;;;0.43;;
62543;SDS011;48597;49.030;1.822;2023-04-15T08:34:06;0.45;;;0.40;;
62543;SDS011;48597;49.030;1.822;2023-04-15T08:36:32;1.42;;;0.50;;
62543;SDS011;48597;49.030;1.822;2023-04-15T08:38:57;1.30;;;0.50;;
62543;SDS011;48597;49.030;1.822;2023-04-15T08:41:25;1.10;;;0.60;;
62543;SDS011;48597;49.030;1.822;2023-04-15T08:43:57;2.10;;;0.70;;
62543;SDS011;48597;49.030;1.822;2023-04-15T08:46:33;1.83;;;0.60;;
62543;SDS011;48597;49.030;1.822;2023-04-15T08:48:58;0.65;;;0.50;;
62543;SDS011;48597;49.030;1.822;2023-04-15T08:51:27;0.80;;;0.60;;
62543;SDS011;48597;49.030;1.822;2023-04-15T08:53:53;0.63;;;0.50;;
62543;SDS011;48597;49.030;1.822;2023-04-15T08:56:18;0.52;;;0.50;;
62543;SDS011;48597;49.030;1.822;2023-04-15T08:58:50;0.50;;;0.50;;
62543;SDS011;48597;49.030;1.822;2023-04-15T09:01:16;0.95;;;0.60;;
62543;SDS011;48597;49.030;1.822;2023-04-15T09:03:42;0.57;;;0.50;;
62543;SDS011;48597;49.030;1.822;2023-04-15T09:06:08;1.08;;;0.60;;
62543;SDS011;48597;49.030;1.822;2023-04-15T09:08:33;1.25;;;0.55;;
62543;SDS011;48597;49.030;1.822;2023-04-15T09:11:00;0.88;;;0.77;;
62543;SDS011;48597;49.030;1.822;2023-04-15T09:13:27;0.93;;;0.60;;
62543;SDS011;48597;49.030;1.822;2023-04-15T09:15:52;1.50;;;0.73;;
62543;SDS011;48597;49.030;1.822;2023-04-15T09:18:27;1.13;;;0.60;;
62543;SDS011;48597;49.030;1.822;2023-04-15T09:20:55;1.77;;;0.55;;
62543;SDS011;48597;49.030;1.822;2023-04-15T09:23:22;0.90;;;0.70;;
62543;SDS011;48597;49.030;1.822;2023-04-15T09:25:48;2.58;;;0.63;;
62543;SDS011;48597;49.030;1.822;2023-04-15T09:28:14;1.08;;;0.70;;
62543;SDS011;48597;49.030;1.822;2023-04-15T09:30:50;3.28;;;0.70;;
62543;SDS011;48597;49.030;1.822;2023-04-15T09:33:26;0.85;;;0.70;;
62543;SDS011;48597;49.030;1.822;2023-04-15T09:35:56;2.17;;;0.70;;
62543;SDS011;48597;49.030;1.822;2023-04-15T09:38:25;1.77;;;1.00;;
62543;SDS011;48597;49.030;1.822;2023-04-15T09:40:51;1.98;;;0.70;;
62543;SDS011;48597;49.030;1.822;2023-04-15T09:43:17;1.10;;;0.70;;
62543;SDS011;48597;49.030;1.822;2023-04-15T09:45:46;2.83;;;0.80;;
62543;SDS011;48597;49.030;1.822;2023-04-15T09:50:42;2.10;;;0.77;;
62543;SDS011;48597;49.030;1.822;2023-04-15T09:53:08;0.80;;;0.70;;
62543;SDS011;48597;49.030;1.822;2023-04-15T09:55:34;1.33;;;0.93;;
62543;SDS011;48597;49.030;1.822;2023-04-15T09:58:00;0.77;;;0.70;;
62543;SDS011;48597;49.030;1.822;2023-04-15T10:13:41;1.35;;;0.63;;
62543;SDS011;48597;49.030;1.822;2023-04-15T11:04:55;1.67;;;1.00;;
62543;SDS011;48597;49.030;1.822;2023-04-15T11:07:39;1.38;;;0.80;;
62543;SDS011;48597;49.030;1.822;2023-04-15T11:12:42;6.88;;;1.42;;
62543;SDS011;48597;49.030;1.822;2023-04-15T11:17:55;2.80;;;1.00;;
62543;SDS011;48597;49.030;1.822;2023-04-15T11:20:22;1.65;;;1.00;;
62543;SDS011;48597;49.030;1.822;2023-04-15T11:22:52;1.33;;;1.00;;
62543;SDS011;48597;49.030;1.822;2023-04-15T11:25:22;1.10;;;0.70;;
62543;SDS011;48597;49.030;1.822;2023-04-15T11:27:48;1.15;;;1.05;;
62543;SDS011;48597;49.030;1.822;2023-04-15T11:30:18;4.22;;;1.10;;
62543;SDS011;48597;49.030;1.822;2023-04-15T11:32:46;3.03;;;1.40;;
62543;SDS011;48597;49.030;1.822;2023-04-15T11:35:12;2.45;;;1.02;;
62543;SDS011;48597;49.030;1.822;2023-04-15T11:37:38;1.60;;;1.30;;
62543;SDS011;48597;49.030;1.822;2023-04-15T11:40:04;3.03;;;1.15;;
62543;SDS011;48597;49.030;1.822;2023-04-15T11:42:31;3.72;;;1.30;;
62543;SDS011;48597;49.030;1.822;2023-04-15T11:45:05;1.70;;;1.17;;
62543;SDS011;48597;49.030;1.822;2023-04-15T11:47:35;3.47;;;1.30;;
62543;SDS011;48597;49.030;1.822;2023-04-15T11:50:20;4.65;;;1.48;;
62543;SDS011;48597;49.030;1.822;2023-04-15T11:52:53;6.40;;;1.92;;
62543;SDS011;48597;49.030;1.822;2023-04-15T11:55:20;5.70;;;1.95;;
62543;SDS011;48597;49.030;1.822;2023-04-15T11:57:48;3.78;;;1.88;;
62543;SDS011;48597;49.030;1.822;2023-04-15T12:00:15;4.10;;;2.00;;
62543;SDS011;48597;49.030;1.822;2023-04-15T12:02:41;6.82;;;2.20;;
62543;SDS011;48597;49.030;1.822;2023-04-15T12:05:07;4.03;;;1.83;;
62543;SDS011;48597;49.030;1.822;2023-04-15T12:07:56;5.30;;;2.00;;
62543;SDS011;48597;49.030;1.822;2023-04-15T12:10:25;7.85;;;2.38;;
62543;SDS011;48597;49.030;1.822;2023-04-15T12:12:51;6.05;;;2.20;;
62543;SDS011;48597;49.030;1.822;2023-04-15T12:15:20;3.85;;;2.13;;
62543;SDS011;48597;49.030;1.822;2023-04-15T12:17:47;7.03;;;2.10;;
62543;SDS011;48597;49.030;1.822;2023-04-15T12:20:13;4.95;;;2.30;;
62543;SDS011;48597;49.030;1.822;2023-04-15T12:22:46;5.50;;;2.35;;
62543;SDS011;48597;49.030;1.822;2023-04-15T12:25:11;5.63;;;2.63;;
62543;SDS011;48597;49.030;1.822;2023-04-15T12:27:37;4.28;;;2.10;;
62543;SDS011;48597;49.030;1.822;2023-04-15T12:30:03;6.28;;;2.38;;
62543;SDS011;48597;49.030;1.822;2023-04-15T12:32:29;9.30;;;2.33;;
62543;SDS011;48597;49.030;1.822;2023-04-15T12:34:59;6.55;;;2.38;;
62543;SDS011;48597;49.030;1.822;2023-04-15T12:37:25;4.03;;;1.83;;
62543;SDS011;48597;49.030;1.822;2023-04-15T12:39:50;4.43;;;2.25;;
62543;SDS011;48597;49.030;1.822;2023-04-15T12:42:18;3.78;;;1.88;;
62543;SDS011;48597;49.030;1.822;2023-04-15T12:44:43;4.95;;;2.47;;
62543;SDS011;48597;49.030;1.822;2023-04-15T12:47:09;7.82;;;2.58;;
62543;SDS011;48597;49.030;1.822;2023-04-15T12:49:35;3.45;;;1.95;;
62543;SDS011;48597;49.030;1.822;2023-04-15T12:52:01;4.35;;;1.90;;
62543;SDS011;48597;49.030;1.822;2023-04-15T12:54:28;7.50;;;2.35;;
62543;SDS011;48597;49.030;1.822;2023-04-15T12:56:56;4.78;;;2.20;;
62543;SDS011;48597;49.030;1.822;2023-04-15T12:59:22;4.88;;;2.30;;
62543;SDS011;48597;49.030;1.822;2023-04-15T13:01:48;3.63;;;2.00;;
62543;SDS011;48597;49.030;1.822;2023-04-15T13:04:15;3.80;;;2.05;;
62543;SDS011;48597;49.030;1.822;2023-04-15T13:06:41;4.35;;;2.05;;
62543;SDS011;48597;49.030;1.822;2023-04-15T13:09:06;4.13;;;2.05;;
62543;SDS011;48597;49.030;1.822;2023-04-15T13:11:32;5.03;;;2.22;;
62543;SDS011;48597;49.030;1.822;2023-04-15T13:13:59;3.92;;;2.10;;
62543;SDS011;48597;49.030;1.822;2023-04-15T13:16:25;2.95;;;2.00;;
62543;SDS011;48597;49.030;1.822;2023-04-15T13:18:53;4.07;;;1.95;;
62543;SDS011;48597;49.030;1.822;2023-04-15T13:21:18;3.28;;;1.77;;
62543;SDS011;48597;49.030;1.822;2023-04-15T13:23:44;3.50;;;2.03;;
62543;SDS011;48597;49.030;1.822;2023-04-15T13:26:12;3.58;;;1.80;;
62543;SDS011;48597;49.030;1.822;2023-04-15T13:28:38;2.95;;;1.90;;
62543;SDS011;48597;49.030;1.822;2023-04-15T13:31:04;4.30;;;1.90;;
62543;SDS011;48597;49.030;1.822;2023-04-15T13:33:29;3.80;;;1.77;;
62543;SDS011;48597;49.030;1.822;2023-04-15T13:35:55;2.17;;;1.65;;
62543;SDS011;48597;49.030;1.822;2023-04-15T13:38:20;3.25;;;1.60;;
62543;SDS011;48597;49.030;1.822;2023-04-15T13:40:46;3.60;;;1.80;;
62543;SDS011;48597;49.030;1.822;2023-04-15T13:43:11;3.28;;;1.63;;
62543;SDS011;48597;49.030;1.822;2023-04-15T13:45:39;3.40;;;1.90;;
62543;SDS011;48597;49.030;1.822;2023-04-15T13:50:33;3.35;;;1.50;;
62543;SDS011;48597;49.030;1.822;2023-04-15T13:52:59;5.80;;;2.33;;
62543;SDS011;48597;49.030;1.822;2023-04-15T13:55:25;2.13;;;1.52;;
62543;SDS011;48597;49.030;1.822;2023-04-15T13:57:50;3.25;;;1.60;;
62543;SDS011;48597;49.030;1.822;2023-04-15T14:00:16;3.30;;;1.77;;
62543;SDS011;48597;49.030;1.822;2023-04-15T14:02:41;4.15;;;1.77;;
62543;SDS011;48597;49.030;1.822;2023-04-15T14:05:07;2.60;;;1.77;;
62543;SDS011;48597;49.030;1.822;2023-04-15T14:07:33;3.00;;;1.63;;
62543;SDS011;48597;49.030;1.822;2023-04-15T14:09:59;6.40;;;1.85;;
62543;SDS011;48597;49.030;1.822;2023-04-15T14:12:25;3.65;;;1.60;;
62543;SDS011;48597;49.030;1.822;2023-04-15T14:14:50;2.90;;;1.60;;
62543;SDS011;48597;49.030;1.822;2023-04-15T14:17:16;2.60;;;1.60;;
62543;SDS011;48597;49.030;1.822;2023-04-15T14:19:41;3.60;;;1.40;;
62543;SDS011;48597;49.030;1.822;2023-04-15T14:22:07;2.58;;;1.70;;
62543;SDS011;48597;49.030;1.822;2023-04-15T14:24:32;4.00;;;1.58;;
62543;SDS011;48597;49.030;1.822;2023-04-15T14:26:58;4.90;;;1.63;;
62543;SDS011;48597;49.030;1.822;2023-04-15T14:29:24;2.40;;;1.40;;
62543;SDS011;48597;49.030;1.822;2023-04-15T14:31:49;3.60;;;1.40;;
62543;SDS011;48597;49.030;1.822;2023-04-15T14:34:15;2.83;;;1.50;;
62543;SDS011;48597;49.030;1.822;2023-04-15T14:36:41;3.92;;;1.30;;
62543;SDS011;48597;49.030;1.822;2023-04-15T14:39:09;4.57;;;1.73;;
62543;SDS011;48597;49.030;1.822;2023-04-15T14:41:35;2.90;;;1.50;;
62543;SDS011;48597;49.030;1.822;2023-04-15T14:44:01;3.22;;;1.52;;
62543;SDS011;48597;49.030;1.822;2023-04-15T14:46:29;3.13;;;1.73;;
62543;SDS011;48597;49.030;1.822;2023-04-15T14:48:57;2.10;;;1.30;;
62543;SDS011;48597;49.030;1.822;2023-04-15T14:51:22;1.33;;;1.23;;
62543;SDS011;48597;49.030;1.822;2023-04-15T14:53:48;2.92;;;1.60;;
62543;SDS011;48597;49.030;1.822;2023-04-15T14:56:15;2.42;;;1.30;;
62543;SDS011;48597;49.030;1.822;2023-04-15T14:58:40;2.03;;;1.40;;
62543;SDS011;48597;49.030;1.822;2023-04-15T15:01:10;3.08;;;1.30;;
62543;SDS011;48597;49.030;1.822;2023-04-15T15:03:36;3.13;;;1.80;;
62543;SDS011;48597;49.030;1.822;2023-04-15T15:06:03;3.42;;;1.63;;
62543;SDS011;48597;49.030;1.822;2023-04-15T15:08:28;2.50;;;1.30;;
62543;SDS011;48597;49.030;1.822;2023-04-15T15:10:54;2.85;;;1.50;;
62543;SDS011;48597;49.030;1.822;2023-04-15T15:13:19;1.77;;;1.15;;
62543;SDS011;48597;49.030;1.822;2023-04-15T15:15:45;2.67;;;1.50;;
62543;SDS011;48597;49.030;1.822;2023-04-15T15:18:13;1.95;;;1.30;;
62543;SDS011;48597;49.030;1.822;2023-04-15T15:20:40;2.42;;;1.60;;
62543;SDS011;48597;49.030;1.822;2023-04-15T15:23:08;2.45;;;1.40;;
62543;SDS011;48597;49.030;1.822;2023-04-15T15:25:34;1.85;;;1.10;;
62543;SDS011;48597;49.030;1.822;2023-04-15T15:27:59;2.20;;;1.20;;
62543;SDS011;48597;49.030;1.822;2023-04-15T15:30:25;2.13;;;1.40;;
62543;SDS011;48597;49.030;1.822;2023-04-15T15:32:51;3.95;;;1.33;;
62543;SDS011;48597;49.030;1.822;2023-04-15T15:35:16;2.15;;;1.33;;
62543;SDS011;48597;49.030;1.822;2023-04-15T15:37:41;1.42;;;1.30;;
62543;SDS011;48597;49.030;1.822;2023-04-15T15:40:07;3.05;;;1.40;;
62543;SDS011;48597;49.030;1.822;2023-04-15T15:42:33;2.13;;;1.25;;
62543;SDS011;48597;49.030;1.822;2023-04-15T15:44:59;2.60;;;1.38;;
62543;SDS011;48597;49.030;1.822;2023-04-15T15:47:24;4.40;;;1.23;;
62543;SDS011;48597;49.030;1.822;2023-04-15T15:49:51;2.60;;;1.52;;
62543;SDS011;48597;49.030;1.822;2023-04-15T15:52:17;2.08;;;1.15;;
62543;SDS011;48597;49.030;1.822;2023-04-15T15:54:42;2.40;;;1.42;;